createdAt,value
2017-07-26T00:00:46.305Z,97.40
2017-07-26T00:03:12.377Z,97.50
2017-07-26T00:05:38.376Z,97.50
2017-07-26T00:08:04.416Z,97.40
2017-07-26T00:10:30.432Z,98.00
2017-07-26T00:12:56.472Z,97.70
2017-07-26T00:15:22.482Z,97.70
2017-07-26T00:17:49.449Z,97.70
2017-07-26T00:20:16.188Z,97.90
2017-07-26T00:22:42.171Z,97.50
2017-07-26T00:25:09.308Z,97.50
2017-07-26T00:27:35.326Z,97.10
2017-07-26T00:30:02.446Z,96.70
2017-07-26T00:32:29.217Z,96.50
2017-07-26T00:34:55.501Z,96.50
2017-07-26T00:37:21.515Z,96.50
2017-07-26T00:39:47.543Z,96.10
2017-07-26T00:42:13.662Z,96.30
2017-07-26T00:44:39.675Z,96.00
2017-07-26T00:47:05.664Z,95.10
2017-07-26T00:49:31.645Z,95.70
2017-07-26T00:51:58.379Z,95.20
2017-07-26T00:54:24.393Z,95.20
2017-07-26T00:56:50.359Z,95.40
2017-07-26T00:59:16.388Z,94.90
2017-07-26T01:01:42.349Z,95.10
2017-07-26T01:04:09.399Z,94.70
2017-07-26T01:06:35.473Z,94.80
2017-07-26T01:09:01.472Z,94.80
2017-07-26T01:11:27.745Z,94.70
2017-07-26T01:13:54.103Z,94.80
2017-07-26T01:16:20.218Z,94.40
2017-07-26T01:18:47.475Z,94.50
2017-07-26T01:21:13.575Z,94.50
2017-07-26T01:23:39.793Z,94.50
2017-07-26T01:26:05.737Z,94.00
2017-07-26T01:28:31.691Z,93.80
2017-07-26T01:30:57.740Z,93.90
2017-07-26T01:33:24.946Z,94.10
2017-07-26T01:35:50.913Z,94.00
2017-07-26T01:38:17.784Z,93.70
2017-07-26T01:40:44.847Z,93.30
2017-07-26T01:43:10.828Z,93.30
2017-07-26T01:45:36.850Z,93.30
2017-07-26T01:48:02.874Z,92.90
2017-07-26T01:50:28.902Z,93.50
2017-07-26T01:52:54.911Z,92.50
2017-07-26T01:55:20.934Z,93.00
2017-07-26T01:57:46.931Z,93.10
2017-07-26T02:00:12.986Z,92.60
2017-07-26T02:02:39.005Z,92.70
2017-07-26T02:05:05.052Z,92.70
2017-07-26T02:07:31.135Z,92.40
2017-07-26T02:09:57.096Z,92.20
2017-07-26T02:12:24.033Z,92.50
2017-07-26T02:14:50.012Z,92.50
2017-07-26T02:17:16.255Z,92.90
2017-07-26T02:19:42.236Z,92.60
2017-07-26T02:22:09.307Z,92.80
2017-07-26T02:24:35.372Z,92.60
2017-07-26T02:27:02.409Z,92.80
2017-07-26T02:29:28.396Z,93.30
2017-07-26T02:31:54.357Z,93.20
2017-07-26T02:34:20.335Z,93.20
2017-07-26T02:36:46.344Z,92.90
2017-07-26T02:39:12.300Z,92.80
2017-07-26T02:41:38.377Z,92.70
2017-07-26T02:44:07.000Z,92.70
2017-07-26T02:46:33.011Z,92.60
2017-07-26T02:48:59.072Z,92.30
2017-07-26T02:51:25.282Z,91.90
2017-07-26T02:53:52.129Z,92.30
2017-07-26T02:56:18.146Z,92.30
2017-07-26T02:58:44.466Z,92.10
2017-07-26T03:01:10.493Z,92.20
2017-07-26T03:03:36.503Z,92.10
2017-07-26T03:06:02.449Z,92.00
2017-07-26T03:08:28.681Z,91.90
2017-07-26T03:10:56.737Z,92.00
2017-07-26T03:13:22.784Z,91.90
2017-07-26T03:15:48.876Z,91.80
2017-07-26T03:18:15.606Z,91.60
2017-07-26T03:20:41.644Z,91.30
2017-07-26T03:23:07.946Z,91.20
2017-07-26T03:25:33.999Z,91.10
2017-07-26T03:28:00.018Z,90.60
2017-07-26T03:30:26.069Z,91.00
2017-07-26T03:32:53.076Z,90.50
2017-07-26T03:35:20.027Z,90.80
2017-07-26T03:37:46.280Z,90.20
2017-07-26T03:40:13.382Z,90.50
2017-07-26T03:42:39.407Z,90.80
2017-07-26T03:45:05.559Z,91.40
2017-07-26T03:47:31.806Z,91.30
2017-07-26T03:49:57.825Z,91.80
2017-07-26T03:52:23.804Z,91.50
2017-07-26T03:54:49.770Z,91.50
2017-07-26T03:57:15.845Z,91.70
2017-07-26T03:59:41.825Z,91.80
2017-07-26T04:02:08.426Z,92.00
2017-07-26T04:04:34.479Z,91.10
2017-07-26T04:07:00.575Z,91.90
2017-07-26T04:09:26.598Z,92.10
2017-07-26T04:11:52.594Z,92.10
2017-07-26T04:14:18.637Z,92.50
2017-07-26T04:16:44.621Z,92.60
2017-07-26T04:19:12.440Z,92.20
2017-07-26T04:21:38.431Z,92.00
2017-07-26T04:24:04.455Z,92.40
2017-07-26T04:26:30.553Z,92.30
2017-07-26T04:28:56.534Z,92.20
2017-07-26T04:31:22.551Z,92.20
2017-07-26T04:33:48.548Z,92.00
2017-07-26T04:36:15.503Z,92.50
2017-07-26T04:38:41.813Z,92.50
2017-07-26T04:41:07.772Z,92.30
2017-07-26T04:43:35.175Z,92.40
2017-07-26T04:46:01.214Z,92.30
2017-07-26T04:48:27.967Z,92.80
2017-07-26T04:50:54.167Z,92.40
2017-07-26T04:53:20.143Z,92.20
2017-07-26T04:55:46.124Z,92.00
2017-07-26T04:58:12.108Z,92.00
2017-07-26T05:00:38.089Z,92.00
2017-07-26T05:03:04.080Z,92.00
2017-07-26T05:05:30.071Z,92.10
2017-07-26T05:07:56.872Z,92.10
2017-07-26T05:10:22.963Z,91.80
2017-07-26T05:12:48.991Z,92.20
2017-07-26T05:15:15.022Z,92.10
2017-07-26T05:17:41.841Z,92.00
2017-07-26T05:20:08.748Z,91.20
2017-07-26T05:22:35.651Z,91.80
2017-07-26T05:25:01.675Z,91.60
2017-07-26T05:27:27.704Z,91.60
2017-07-26T05:29:54.751Z,91.40
2017-07-26T05:32:20.772Z,91.30
2017-07-26T05:34:47.516Z,91.70
2017-07-26T05:37:13.576Z,91.70
2017-07-26T05:39:39.755Z,91.50
2017-07-26T05:42:06.505Z,91.80
2017-07-26T05:44:32.562Z,91.50
2017-07-26T05:46:58.623Z,91.60
2017-07-26T05:49:24.749Z,91.30
2017-07-26T05:51:51.651Z,91.40
2017-07-26T05:54:20.346Z,91.50
2017-07-26T05:56:46.427Z,91.70
2017-07-26T05:59:12.478Z,91.80
2017-07-26T06:01:38.511Z,91.30
2017-07-26T06:04:04.541Z,91.60
2017-07-26T06:06:30.553Z,91.30
2017-07-26T06:08:56.543Z,91.20
2017-07-26T06:11:22.557Z,91.10
2017-07-26T06:13:48.791Z,91.10
2017-07-26T06:16:14.843Z,91.10
2017-07-26T06:18:40.946Z,90.90
2017-07-26T06:21:07.500Z,91.10
2017-07-26T06:23:34.499Z,91.20
2017-07-26T06:26:01.231Z,90.80
2017-07-26T06:28:27.491Z,90.80
2017-07-26T06:30:53.512Z,90.70
2017-07-26T06:33:19.622Z,90.80
2017-07-26T06:35:45.635Z,90.60
2017-07-26T06:38:12.165Z,91.00
2017-07-26T06:40:38.763Z,91.10
2017-07-26T06:43:05.188Z,90.80
2017-07-26T06:45:31.784Z,90.90
2017-07-26T06:47:57.883Z,90.70
2017-07-26T06:50:23.998Z,90.70
2017-07-26T06:52:50.039Z,90.70
2017-07-26T06:55:16.055Z,90.60
2017-07-26T06:57:45.357Z,90.60
2017-07-26T07:00:11.392Z,90.60
2017-07-26T07:02:37.664Z,90.80
2017-07-26T07:05:03.773Z,90.60
2017-07-26T07:07:29.764Z,90.50
2017-07-26T07:09:56.600Z,90.40
2017-07-26T07:12:22.717Z,90.40
2017-07-26T07:14:48.749Z,90.60
2017-07-26T07:17:16.618Z,90.40
2017-07-26T07:19:42.640Z,90.50
2017-07-26T07:22:08.891Z,90.30
2017-07-26T07:24:34.888Z,90.30
2017-07-26T07:27:02.368Z,90.40
2017-07-26T07:29:28.392Z,90.60
2017-07-26T07:31:54.392Z,90.60
2017-07-26T07:34:20.390Z,90.50
2017-07-26T07:36:46.391Z,90.50
2017-07-26T07:39:12.560Z,90.50
2017-07-26T07:41:39.308Z,90.30
2017-07-26T07:44:05.546Z,90.30
2017-07-26T07:46:31.561Z,90.60
2017-07-26T07:48:57.584Z,90.40
2017-07-26T07:51:23.626Z,90.40
2017-07-26T07:53:49.758Z,90.50
2017-07-26T07:56:16.007Z,90.30
2017-07-26T07:58:42.101Z,90.10
2017-07-26T08:01:08.765Z,90.30
2017-07-26T08:03:34.849Z,90.30
2017-07-26T08:06:00.863Z,90.40
2017-07-26T08:08:27.195Z,90.40
2017-07-26T08:10:53.450Z,90.20
2017-07-26T08:13:20.384Z,90.30
2017-07-26T08:15:46.491Z,90.40
2017-07-26T08:18:12.636Z,90.10
2017-07-26T08:20:38.763Z,90.30
2017-07-26T08:23:05.907Z,90.40
2017-07-26T08:25:32.886Z,90.60
2017-07-26T08:27:58.914Z,90.60
2017-07-26T08:30:24.903Z,89.90
2017-07-26T08:32:52.698Z,90.10
2017-07-26T08:35:18.821Z,89.50
2017-07-26T08:37:44.787Z,89.10
2017-07-26T08:40:10.811Z,89.20
2017-07-26T08:42:38.491Z,88.70
2017-07-26T08:45:04.539Z,88.80
2017-07-26T08:47:30.766Z,87.90
2017-07-26T08:49:57.793Z,88.90
2017-07-26T08:52:23.910Z,88.20
2017-07-26T08:54:50.591Z,88.00
2017-07-26T08:57:16.588Z,88.10
2017-07-26T08:59:42.668Z,87.90
2017-07-26T09:02:09.697Z,88.00
2017-07-26T09:04:35.795Z,87.50
2017-07-26T09:07:02.011Z,87.00
2017-07-26T09:09:28.361Z,87.20
2017-07-26T09:11:54.814Z,86.40
2017-07-26T09:14:21.078Z,86.30
2017-07-26T09:16:47.118Z,86.40
2017-07-26T09:19:13.131Z,86.80
2017-07-26T09:21:39.289Z,86.40
2017-07-26T09:24:05.397Z,86.10
2017-07-26T09:26:31.715Z,85.60
2017-07-26T09:28:58.134Z,84.90
2017-07-26T09:31:24.403Z,85.60
2017-07-26T09:33:50.375Z,84.70
2017-07-26T09:36:16.652Z,85.00
2017-07-26T09:38:42.925Z,85.40
2017-07-26T09:41:20.020Z,85.20
2017-07-26T09:43:46.038Z,85.70
2017-07-26T09:46:12.732Z,84.60
2017-07-26T09:48:39.172Z,84.70
2017-07-26T09:51:06.262Z,84.70
2017-07-26T09:53:35.843Z,83.80
2017-07-26T09:56:02.637Z,83.80
2017-07-26T09:58:28.719Z,84.20
2017-07-26T10:00:56.231Z,84.20
2017-07-26T10:03:25.770Z,84.20
2017-07-26T10:05:52.006Z,84.20
2017-07-26T10:08:18.142Z,84.40
2017-07-26T10:10:44.871Z,84.30
2017-07-26T10:13:11.975Z,84.60
2017-07-26T10:15:37.975Z,84.00
2017-07-26T10:18:05.034Z,83.90
2017-07-26T10:20:31.062Z,82.40
2017-07-26T10:22:57.296Z,83.10
2017-07-26T10:25:23.470Z,82.70
2017-07-26T10:27:49.563Z,83.20
2017-07-26T10:30:16.802Z,83.10
2017-07-26T10:32:42.939Z,81.70
2017-07-26T10:35:09.254Z,81.40
2017-07-26T10:37:36.567Z,80.40
2017-07-26T10:40:04.834Z,79.00
2017-07-26T10:42:31.810Z,79.10
2017-07-26T10:44:58.779Z,78.90
2017-07-26T10:47:24.897Z,78.70
2017-07-26T10:49:51.029Z,77.70
2017-07-26T10:52:17.252Z,77.80
2017-07-26T10:54:44.256Z,77.10
2017-07-26T10:57:11.222Z,76.90
2017-07-26T10:59:37.336Z,76.00
2017-07-26T11:02:03.807Z,75.30
2017-07-26T11:04:30.003Z,75.00
2017-07-26T11:06:57.514Z,74.20
2017-07-26T11:09:23.988Z,72.50
2017-07-26T11:11:50.321Z,72.40
2017-07-26T11:14:18.023Z,71.40
2017-07-26T11:16:44.530Z,72.60
2017-07-26T11:19:10.842Z,71.90
2017-07-26T11:21:37.033Z,71.10
2017-07-26T11:24:03.198Z,69.00
2017-07-26T11:26:29.391Z,67.50
2017-07-26T11:28:58.063Z,67.90
2017-07-26T11:31:24.961Z,67.60
2017-07-26T11:33:51.084Z,66.90
2017-07-26T11:36:18.121Z,67.40
2017-07-26T11:38:44.235Z,67.30
2017-07-26T11:41:11.211Z,66.10
2017-07-26T11:43:37.942Z,66.40
2017-07-26T11:46:04.967Z,66.30
2017-07-26T11:48:31.317Z,66.20
2017-07-26T11:50:58.259Z,65.60
2017-07-26T11:53:24.458Z,64.10
2017-07-26T11:55:51.857Z,62.30
2017-07-26T11:58:18.285Z,62.30
2017-07-26T12:00:47.643Z,63.50
2017-07-26T12:03:13.689Z,63.50
2017-07-26T12:05:40.325Z,62.70
2017-07-26T12:08:08.302Z,63.90
2017-07-26T12:10:36.452Z,62.80
2017-07-26T12:13:02.674Z,63.20
2017-07-26T12:15:28.748Z,61.60
2017-07-26T12:17:56.803Z,60.80
2017-07-26T12:20:22.895Z,61.30
2017-07-26T12:22:49.172Z,60.90
2017-07-26T12:25:15.300Z,62.10
2017-07-26T12:27:41.974Z,61.70
2017-07-26T12:30:08.261Z,62.10
2017-07-26T12:32:34.961Z,62.20
2017-07-26T12:35:02.108Z,61.70
2017-07-26T12:37:28.147Z,61.60
2017-07-26T12:39:54.575Z,62.00
2017-07-26T12:42:20.671Z,61.20
2017-07-26T12:44:48.641Z,61.20
2017-07-26T12:47:14.657Z,61.10
2017-07-26T12:49:41.857Z,57.20
2017-07-26T12:52:07.988Z,57.20
2017-07-26T12:54:34.063Z,57.40
2017-07-26T12:57:00.220Z,55.90
2017-07-26T12:59:26.324Z,54.50
2017-07-26T13:01:52.355Z,53.90
2017-07-26T13:04:18.683Z,54.60
2017-07-26T13:06:44.996Z,54.10
2017-07-26T13:09:11.498Z,54.20
2017-07-26T13:11:37.527Z,54.50
2017-07-26T13:14:03.543Z,53.40
2017-07-26T13:16:30.424Z,54.20
2017-07-26T13:18:56.747Z,53.70
2017-07-26T13:21:23.489Z,53.50
2017-07-26T13:23:50.733Z,54.40
2017-07-26T13:26:18.613Z,54.90
2017-07-26T13:28:44.747Z,54.40
2017-07-26T13:31:10.905Z,54.10
2017-07-26T13:33:36.904Z,54.80
2017-07-26T13:36:02.899Z,53.70
2017-07-26T13:38:28.970Z,53.60
2017-07-26T13:40:55.917Z,53.90
2017-07-26T13:43:22.750Z,54.00
2017-07-26T13:45:48.790Z,54.30
2017-07-26T13:48:15.414Z,54.40
2017-07-26T13:50:42.360Z,54.50
2017-07-26T13:53:09.403Z,53.90
2017-07-26T13:55:35.429Z,54.10
2017-07-26T13:58:02.017Z,53.80
2017-07-26T14:00:28.802Z,52.20
2017-07-26T14:02:54.801Z,51.40
2017-07-26T14:05:20.832Z,50.20
2017-07-26T14:07:46.879Z,48.80
2017-07-26T14:10:13.421Z,48.50
2017-07-26T14:12:39.591Z,48.50
2017-07-26T14:15:06.058Z,48.60
2017-07-26T14:20:02.970Z,47.10
2017-07-26T14:22:29.025Z,48.20
2017-07-26T14:24:55.170Z,49.50
2017-07-26T14:27:22.423Z,51.10
2017-07-26T14:29:48.447Z,52.10
2017-07-26T14:32:14.802Z,53.30
2017-07-26T14:34:40.809Z,52.90
2017-07-26T14:37:07.827Z,51.70
2017-07-26T14:39:33.884Z,49.40
2017-07-26T14:41:59.986Z,50.70
2017-07-26T14:44:26.010Z,50.80
2017-07-26T14:46:52.307Z,50.00
2017-07-26T14:49:20.104Z,50.10
2017-07-26T14:51:46.423Z,50.40
2017-07-26T14:54:13.384Z,49.50
2017-07-26T14:56:39.584Z,49.30
2017-07-26T14:59:06.175Z,50.00
2017-07-26T15:01:32.348Z,49.70
2017-07-26T15:04:14.246Z,49.90
2017-07-26T15:06:40.502Z,49.30
2017-07-26T15:09:06.574Z,49.50
2017-07-26T15:11:32.517Z,49.70
2017-07-26T15:13:58.517Z,49.00
2017-07-26T15:16:24.552Z,48.20
2017-07-26T15:18:51.559Z,49.10
2017-07-26T15:21:18.523Z,48.20
2017-07-26T15:23:44.863Z,46.70
2017-07-26T15:26:11.168Z,46.10
2017-07-26T15:28:37.927Z,46.40
2017-07-26T15:31:03.968Z,46.00
2017-07-26T15:33:30.003Z,45.80
2017-07-26T15:35:57.641Z,46.10
2017-07-26T15:38:23.710Z,46.30
2017-07-26T15:40:50.616Z,46.40
2017-07-26T15:43:17.359Z,47.10
2017-07-26T15:45:43.871Z,46.70
2017-07-26T15:48:09.942Z,45.70
2017-07-26T15:50:35.976Z,45.60
2017-07-26T15:53:02.587Z,46.30
2017-07-26T15:55:29.549Z,46.60
2017-07-26T15:57:55.651Z,46.70
2017-07-26T16:00:23.821Z,46.80
2017-07-26T16:02:50.793Z,47.00
2017-07-26T16:05:17.126Z,46.70
2017-07-26T16:07:43.153Z,46.60
2017-07-26T16:12:42.763Z,46.10
2017-07-26T16:15:08.881Z,45.90
2017-07-26T16:17:35.758Z,45.70
2017-07-26T16:20:02.787Z,45.80
2017-07-26T16:22:28.899Z,45.60
2017-07-26T16:24:55.288Z,46.20
2017-07-26T16:27:22.589Z,45.80
2017-07-26T16:29:48.620Z,44.70
2017-07-26T16:32:15.796Z,44.50
2017-07-26T16:34:42.026Z,44.30
2017-07-26T16:37:11.959Z,43.70
2017-07-26T16:39:39.133Z,44.30
2017-07-26T16:42:11.674Z,44.30
2017-07-26T16:44:38.208Z,43.30
2017-07-26T16:47:05.720Z,43.70
2017-07-26T16:49:35.513Z,44.40
2017-07-26T16:52:05.108Z,45.00
2017-07-26T16:54:33.162Z,45.10
2017-07-26T16:57:00.600Z,45.60
2017-07-26T16:59:29.211Z,46.30
2017-07-26T17:01:58.194Z,47.30
2017-07-26T17:04:29.238Z,47.30
2017-07-26T17:09:28.303Z,48.10
2017-07-26T17:11:57.038Z,48.60
2017-07-26T17:14:24.968Z,48.90
2017-07-26T17:16:53.273Z,49.40
2017-07-26T17:19:19.367Z,49.90
2017-07-26T17:21:49.074Z,50.20
2017-07-26T17:24:15.369Z,49.90
2017-07-26T17:26:45.172Z,48.90
2017-07-26T17:29:12.944Z,48.50
2017-07-26T17:31:40.720Z,48.10
2017-07-26T17:34:10.230Z,48.00
2017-07-26T17:36:36.980Z,47.80
2017-07-26T17:39:05.749Z,47.70
2017-07-26T17:41:34.412Z,47.80
2017-07-26T17:44:03.727Z,48.10
2017-07-26T17:46:32.885Z,48.00
2017-07-26T17:48:59.894Z,47.70
2017-07-26T17:54:01.182Z,47.50
2017-07-26T17:56:28.957Z,47.40
2017-07-26T17:59:00.032Z,47.80
2017-07-26T18:01:28.115Z,47.80
2017-07-26T18:04:00.073Z,48.10
2017-07-26T18:06:31.973Z,48.10
2017-07-26T18:08:59.841Z,49.10
2017-07-26T18:11:27.272Z,49.00
2017-07-26T18:13:56.118Z,49.70
2017-07-26T18:19:03.504Z,51.70
2017-07-26T18:21:31.291Z,51.90
2017-07-26T18:23:58.800Z,52.30
2017-07-26T18:26:26.371Z,52.80
2017-07-26T18:28:55.144Z,52.40
2017-07-26T18:31:25.970Z,52.60
2017-07-26T18:33:59.902Z,52.80
2017-07-26T18:36:26.917Z,53.20
2017-07-26T18:39:06.483Z,53.00
2017-07-26T18:41:48.454Z,53.00
2017-07-26T18:44:23.677Z,53.50
2017-07-26T18:46:57.101Z,53.80
2017-07-26T18:49:32.839Z,54.10
2017-07-26T18:52:04.193Z,54.40
2017-07-26T18:54:31.485Z,55.00
2017-07-26T18:57:01.885Z,55.40
2017-07-26T18:59:33.334Z,55.40
2017-07-26T19:02:06.103Z,55.90
2017-07-26T19:04:33.615Z,55.70
2017-07-26T19:07:09.096Z,56.30
2017-07-26T19:09:39.751Z,55.80
2017-07-26T19:12:12.970Z,56.40
2017-07-26T19:14:43.914Z,56.20
2017-07-26T19:17:15.816Z,56.60
2017-07-26T19:19:45.615Z,56.70
2017-07-26T19:22:13.966Z,56.80
2017-07-26T19:24:44.235Z,57.00
2017-07-26T19:27:16.833Z,57.30
2017-07-26T19:29:47.170Z,57.30
2017-07-26T19:32:17.193Z,57.60
2017-07-26T19:34:53.402Z,57.80
2017-07-26T19:37:25.985Z,58.00
2017-07-26T19:40:03.724Z,58.50
2017-07-26T19:53:46.012Z,62.10
2017-07-26T19:56:26.431Z,62.70
2017-07-26T19:58:55.133Z,63.30
2017-07-26T20:01:25.116Z,63.80
2017-07-26T20:04:09.808Z,63.80
2017-07-26T20:06:43.738Z,65.20
2017-07-26T20:09:25.273Z,64.80
2017-07-26T20:15:08.811Z,66.10
2017-07-26T20:17:37.979Z,66.20
2017-07-26T20:20:06.173Z,66.20
2017-07-26T20:22:55.776Z,65.90
2017-07-26T20:25:32.047Z,66.30
2017-07-26T20:28:20.452Z,66.30
2017-07-26T20:30:55.654Z,66.40
2017-07-26T20:33:40.228Z,67.20
2017-07-26T20:36:25.059Z,68.00
2017-07-26T20:39:18.808Z,68.90
2017-07-26T20:44:38.255Z,68.50
2017-07-26T20:47:18.986Z,68.80
2017-07-26T20:58:10.161Z,68.70
2017-07-26T21:00:37.144Z,69.20
2017-07-26T21:03:03.239Z,69.20
2017-07-26T21:05:30.288Z,69.70
2017-07-26T21:07:56.557Z,69.00
2017-07-26T21:10:22.594Z,69.00
2017-07-26T21:12:48.804Z,69.70
2017-07-26T21:15:14.891Z,70.80
2017-07-26T21:17:41.036Z,69.80
2017-07-26T21:20:07.908Z,70.30
2017-07-26T21:22:33.997Z,70.50
2017-07-26T21:25:00.048Z,70.00
2017-07-26T21:27:27.607Z,70.60
2017-07-26T21:29:53.685Z,70.60
2017-07-26T21:32:19.955Z,70.60
2017-07-26T21:34:46.094Z,69.90
2017-07-26T21:37:12.318Z,70.40
2017-07-26T21:39:39.977Z,70.80
2017-07-26T21:42:06.067Z,71.50
2017-07-26T21:44:33.795Z,71.60
2017-07-26T21:47:00.749Z,71.90
2017-07-26T21:49:27.755Z,72.00
2017-07-26T21:51:53.777Z,72.50
2017-07-26T21:56:51.872Z,74.00
2017-07-26T22:01:50.413Z,74.70
2017-07-26T22:04:18.037Z,74.90
2017-07-26T22:06:44.266Z,75.80
2017-07-26T22:09:11.301Z,74.90
2017-07-26T22:11:38.703Z,75.50
2017-07-26T22:14:04.827Z,75.80
2017-07-26T22:16:32.399Z,76.30
2017-07-26T22:18:59.801Z,76.30
2017-07-26T22:21:28.952Z,76.40
2017-07-26T22:23:55.031Z,76.00
2017-07-26T22:26:21.284Z,76.40
2017-07-26T22:28:48.215Z,76.10
2017-07-26T22:31:14.398Z,75.80
2017-07-26T22:33:41.275Z,76.40
2017-07-26T22:36:07.303Z,76.00
2017-07-26T22:38:34.724Z,76.10
2017-07-26T22:41:01.552Z,75.20
2017-07-26T22:43:27.638Z,75.00
2017-07-26T22:45:53.698Z,74.70
2017-07-26T22:48:19.710Z,75.10
2017-07-26T22:50:45.702Z,75.30
2017-07-26T22:53:11.819Z,76.20
2017-07-26T22:55:38.606Z,74.60
2017-07-26T22:58:04.628Z,75.00
2017-07-26T23:00:30.865Z,75.40
2017-07-26T23:02:56.822Z,74.70
2017-07-26T23:05:22.823Z,74.10
2017-07-26T23:07:48.908Z,74.60
2017-07-26T23:10:14.910Z,73.80
2017-07-26T23:12:40.887Z,74.20
2017-07-26T23:15:06.894Z,74.70
2017-07-26T23:17:32.904Z,75.50
2017-07-26T23:19:58.903Z,75.40
2017-07-26T23:22:24.832Z,75.40
2017-07-26T23:24:50.820Z,75.30
2017-07-26T23:27:17.911Z,76.00
2017-07-26T23:29:44.555Z,76.20
2017-07-26T23:32:10.593Z,76.10
2017-07-26T23:34:37.179Z,76.00
2017-07-26T23:37:03.225Z,75.20
2017-07-26T23:39:29.250Z,75.20
2017-07-26T23:41:55.254Z,75.60
2017-07-26T23:44:22.930Z,76.30
2017-07-26T23:46:48.912Z,76.10
2017-07-26T23:49:14.882Z,76.60
2017-07-26T23:51:41.845Z,76.70
2017-07-26T23:54:09.685Z,77.00
2017-07-26T23:56:35.700Z,76.60
2017-07-26T23:59:02.275Z,77.30
